Time;durP1;ratioP1;P1;durP2;ratioP2;P2;SDS_P1;SDS_P2;PMS_P1;PMS_P2;Temp;Humidity;BMP_temperature;BMP_pressure;BME280_temperature;BME280_humidity;BME280_pressure;Samples;Min_cycle;Max_cycle;Signal;HPM_P1;HPM_P2
2023/09/04 00:01:55;;;;;;;16.67;13.70;;;15.90;99.90;;;;;;5052314;28;20159;-70
2023/09/04 00:04:21;;;;;;;26.13;17.87;;;15.80;99.90;;;;;;5050741;28;20467;-69
2023/09/04 00:06:46;;;;;;;19.03;14.60;;;15.80;99.90;;;;;;5051550;28;20433;-68
2023/09/04 00:09:14;;;;;;;25.53;15.40;;;15.70;99.90;;;;;;5050765;28;20278;-66
2023/09/04 00:11:40;;;;;;;20.40;15.50;;;15.70;99.90;;;;;;5038518;28;20698;-71
2023/09/04 00:14:06;;;;;;;20.40;15.27;;;15.70;99.90;;;;;;5033131;28;20394;-71
2023/09/04 00:16:32;;;;;;;25.23;17.00;;;15.70;1.00;;;;;;5035128;28;20176;-65
2023/09/04 00:18:57;;;;;;;17.00;14.83;;;15.70;1.00;;;;;;5048254;28;20540;-71
2023/09/04 00:21:23;;;;;;;20.70;15.67;;;15.70;1.00;;;;;;5054772;28;20258;-66
2023/09/04 00:23:49;;;;;;;26.43;16.83;;;15.70;1.00;;;;;;5054625;28;20612;-71
2023/09/04 00:26:15;;;;;;;22.43;17.70;;;15.70;1.00;;;;;;5049154;28;20179;-69
2023/09/04 00:28:40;;;;;;;21.37;15.60;;;15.70;1.00;;;;;;5035864;28;20198;-65
2023/09/04 00:31:06;;;;;;;23.60;14.50;;;15.70;1.00;;;;;;5035170;28;20540;-70
2023/09/04 00:33:32;;;;;;;23.10;16.10;;;15.70;1.00;;;;;;5042483;28;20244;-67
2023/09/04 00:35:58;;;;;;;23.63;15.50;;;15.70;1.00;;;;;;5054874;28;20733;-67
2023/09/04 00:38:24;;;;;;;25.17;17.17;;;15.60;1.00;;;;;;5055412;28;20543;-72
2023/09/04 00:40:49;;;;;;;25.83;16.97;;;15.60;1.00;;;;;;5055698;28;20167;-72
2023/09/04 00:43:15;;;;;;;25.13;15.40;;;15.60;1.00;;;;;;5055567;28;20261;-65
2023/09/04 00:45:43;;;;;;;20.70;16.17;;;15.70;1.00;;;;;;5054539;28;20171;-68
2023/09/04 00:48:10;;;;;;;22.43;15.60;;;15.60;1.00;;;;;;5041209;28;20203;-67
2023/09/04 00:50:37;;;;;;;22.93;16.27;;;15.60;1.00;;;;;;5033660;28;20536;-66
2023/09/04 00:53:06;;;;;;;21.27;16.23;;;15.60;1.00;;;;;;5035438;28;20410;-66
2023/09/04 00:55:32;;;;;;;25.17;16.20;;;15.60;1.00;;;;;;5034547;28;20876;-70
2023/09/04 00:57:58;;;;;;;27.67;17.00;;;15.60;1.00;;;;;;5035248;28;20503;-66
2023/09/04 01:00:27;;;;;;;27.20;15.13;;;15.60;1.00;;;;;;5035127;28;20484;-67
2023/09/04 01:02:53;;;;;;;21.90;16.57;;;15.60;1.00;;;;;;5037630;28;20472;-71
2023/09/04 01:05:19;;;;;;;23.97;16.20;;;15.60;1.00;;;;;;5033350;28;20430;-66
2023/09/04 01:07:45;;;;;;;27.03;16.70;;;15.60;1.00;;;;;;5034532;28;20451;-65
2023/09/04 01:10:13;;;;;;;22.57;16.17;;;15.60;1.00;;;;;;5035234;28;20254;-68
2023/09/04 01:12:56;;;;;;;23.80;16.83;;;15.60;1.00;;;;;;5034983;28;20410;-72
2023/09/04 01:15:24;;;;;;;21.40;17.07;;;15.50;1.00;;;;;;5034255;28;20410;-66
2023/09/04 01:17:51;;;;;;;26.67;15.93;;;15.50;1.00;;;;;;5037433;28;20817;-66
2023/09/04 01:20:19;;;;;;;23.33;16.97;;;15.50;1.00;;;;;;5047349;28;20457;-67
2023/09/04 01:22:45;;;;;;;22.00;16.57;;;15.60;1.00;;;;;;5035110;28;20958;-71
2023/09/04 01:25:11;;;;;;;25.47;17.43;;;15.50;1.00;;;;;;5031480;28;20537;-66
2023/09/04 01:27:42;;;;;;;23.33;15.13;;;15.50;1.00;;;;;;5034473;28;20192;-66
2023/09/04 01:30:17;;;;;;;25.53;16.03;;;15.50;1.00;;;;;;5049578;28;20437;-71
2023/09/04 01:32:51;;;;;;;21.53;15.90;;;15.50;1.00;;;;;;5053161;28;20447;-66
2023/09/04 01:35:22;;;;;;;24.73;14.30;;;15.50;1.00;;;;;;5053753;28;20754;-72
2023/09/04 01:37:48;;;;;;;19.53;15.33;;;15.50;1.00;;;;;;5054264;28;20425;-71
2023/09/04 01:40:14;;;;;;;23.73;16.63;;;15.50;1.00;;;;;;5053542;28;20751;-72
2023/09/04 01:42:39;;;;;;;25.77;15.70;;;15.40;1.00;;;;;;5052096;28;20476;-66
2023/09/04 01:45:06;;;;;;;20.23;14.63;;;15.40;1.00;;;;;;5052828;28;20163;-67
2023/09/04 01:47:31;;;;;;;17.40;14.80;;;15.40;1.00;;;;;;5052443;28;20195;-72
2023/09/04 01:49:57;;;;;;;20.17;15.53;;;15.40;1.00;;;;;;5053559;28;20448;-66
2023/09/04 01:52:23;;;;;;;19.53;15.17;;;15.40;1.00;;;;;;5054189;28;20171;-72
2023/09/04 01:54:48;;;;;;;22.80;14.50;;;15.40;1.00;;;;;;5052950;28;20179;-72
2023/09/04 01:57:16;;;;;;;18.83;14.50;;;15.40;1.00;;;;;;5053365;28;20227;-66
2023/09/04 01:59:42;;;;;;;20.13;14.60;;;15.40;1.00;;;;;;5046222;28;20207;-71
2023/09/04 02:02:07;;;;;;;19.17;14.60;;;15.40;1.00;;;;;;5033714;28;20468;-71
2023/09/04 02:04:34;;;;;;;17.70;14.50;;;15.40;1.00;;;;;;5046631;28;20183;-71
2023/09/04 02:07:00;;;;;;;16.63;13.47;;;15.40;1.00;;;;;;5052935;28;20186;-71
2023/09/04 02:09:26;;;;;;;22.87;14.03;;;15.30;1.00;;;;;;5053913;28;20435;-66
2023/09/04 02:11:52;;;;;;;23.97;14.90;;;15.30;1.00;;;;;;5046983;28;20430;-72
2023/09/04 02:14:17;;;;;;;17.93;13.10;;;15.30;1.00;;;;;;5033935;28;20167;-71
2023/09/04 02:16:43;;;;;;;17.60;13.47;;;15.30;1.00;;;;;;5032896;28;20168;-72
2023/09/04 02:19:09;;;;;;;19.57;14.17;;;15.20;1.00;;;;;;5041448;28;20232;-72
2023/09/04 02:21:35;;;;;;;17.60;13.80;;;15.20;1.00;;;;;;5053581;28;20178;-71
2023/09/04 02:24:01;;;;;;;19.37;13.97;;;15.20;1.00;;;;;;5053699;28;20406;-70
2023/09/04 02:26:27;;;;;;;19.27;14.23;;;15.20;1.00;;;;;;5051490;28;20544;-68
2023/09/04 02:28:53;;;;;;;27.33;14.37;;;15.20;1.00;;;;;;5053549;28;20425;-72
2023/09/04 02:31:18;;;;;;;18.20;13.27;;;15.20;1.00;;;;;;5053436;28;20199;-68
2023/09/04 02:33:44;;;;;;;18.77;13.60;;;15.10;1.00;;;;;;5050884;28;20638;-72
2023/09/04 02:36:10;;;;;;;19.00;12.80;;;15.10;1.00;;;;;;5052007;28;20170;-66
2023/09/04 02:38:36;;;;;;;17.53;12.57;;;15.10;1.00;;;;;;5053248;28;20285;-67
2023/09/04 02:41:01;;;;;;;18.43;12.20;;;15.10;1.00;;;;;;5052724;28;20175;-71
2023/09/04 02:43:27;;;;;;;15.90;12.80;;;15.10;1.00;;;;;;5035393;28;20659;-65
2023/09/04 02:45:53;;;;;;;14.37;12.30;;;15.00;1.00;;;;;;5032540;28;20521;-71
2023/09/04 02:48:18;;;;;;;17.37;14.13;;;15.00;1.00;;;;;;5033278;28;20206;-66
2023/09/04 02:50:44;;;;;;;14.77;12.03;;;15.00;1.00;;;;;;5050755;28;20716;-71
2023/09/04 02:53:10;;;;;;;18.33;11.80;;;15.00;1.00;;;;;;5053155;28;20813;-70
2023/09/04 02:55:36;;;;;;;17.77;13.70;;;15.00;1.00;;;;;;5051749;28;20179;-69
2023/09/04 02:58:02;;;;;;;19.33;14.03;;;15.00;1.00;;;;;;5051133;28;20575;-70
2023/09/04 03:00:28;;;;;;;18.80;13.27;;;15.00;1.00;;;;;;5053092;28;20193;-66
2023/09/04 03:02:54;;;;;;;15.17;13.13;;;15.00;1.00;;;;;;5051809;28;20436;-68
2023/09/04 03:05:19;;;;;;;16.07;12.93;;;15.00;1.00;;;;;;5050497;28;20309;-67
2023/09/04 03:07:45;;;;;;;15.80;12.13;;;15.00;1.00;;;;;;5052816;28;20541;-66
2023/09/04 03:10:11;;;;;;;16.97;14.03;;;14.90;1.00;;;;;;5053023;28;20524;-71
2023/09/04 03:12:36;;;;;;;21.27;13.57;;;14.90;1.00;;;;;;5052962;28;20172;-72
2023/09/04 03:15:06;;;;;;;15.10;11.20;;;14.80;1.00;;;;;;5050181;28;20183;-71
2023/09/04 03:17:33;;;;;;;18.97;12.60;;;14.80;1.00;;;;;;5052670;28;20187;-71
2023/09/04 03:20:00;;;;;;;15.77;12.90;;;14.80;1.00;;;;;;5051239;28;20461;-66
2023/09/04 03:22:27;;;;;;;17.43;13.90;;;14.70;1.00;;;;;;5052766;28;20405;-66
2023/09/04 03:24:53;;;;;;;23.17;14.87;;;14.70;1.00;;;;;;5051382;28;20411;-71
2023/09/04 03:27:19;;;;;;;24.80;15.10;;;14.70;1.00;;;;;;5051003;28;20406;-68
2023/09/04 03:29:45;;;;;;;14.70;11.57;;;14.70;1.00;;;;;;5032188;28;20438;-72
2023/09/04 03:32:11;;;;;;;21.03;15.00;;;14.70;1.00;;;;;;5031839;28;20468;-71
2023/09/04 03:34:37;;;;;;;19.50;14.77;;;14.70;1.00;;;;;;5034488;28;20225;-72
2023/09/04 03:37:03;;;;;;;17.20;13.60;;;14.70;1.00;;;;;;5051724;28;20171;-69
2023/09/04 03:39:34;;;;;;;16.07;12.60;;;14.70;1.00;;;;;;5052621;28;20471;-68
2023/09/04 03:41:59;;;;;;;22.40;14.40;;;14.70;1.00;;;;;;5051679;28;20463;-72
2023/09/04 03:44:26;;;;;;;22.53;14.50;;;14.70;1.00;;;;;;5052606;28;20409;-72
2023/09/04 03:46:52;;;;;;;22.57;16.03;;;14.60;1.00;;;;;;5050449;28;20694;-67
2023/09/04 03:49:17;;;;;;;26.80;16.30;;;14.60;1.00;;;;;;5054116;28;20524;-67
2023/09/04 03:51:43;;;;;;;20.17;14.40;;;14.60;1.00;;;;;;5042240;28;20202;-66
2023/09/04 03:54:09;;;;;;;22.70;15.27;;;14.60;1.00;;;;;;5036626;28;20249;-68
2023/09/04 03:56:35;;;;;;;21.53;15.53;;;14.60;1.00;;;;;;5035630;28;21067;-66
2023/09/04 03:59:01;;;;;;;30.53;16.67;;;14.60;1.00;;;;;;5043824;28;20277;-66
2023/09/04 04:01:31;;;;;;;28.23;14.83;;;14.60;1.00;;;;;;5056382;28;20171;-70
2023/09/04 04:03:58;;;;;;;33.03;14.37;;;14.60;1.00;;;;;;5056266;28;20669;-66
2023/09/04 04:06:25;;;;;;;21.37;14.13;;;14.60;1.00;;;;;;5053786;28;20440;-66
2023/09/04 04:08:51;;;;;;;22.80;16.43;;;14.60;1.00;;;;;;5054007;28;20480;-66
2023/09/04 04:11:19;;;;;;;23.43;13.10;;;14.60;1.00;;;;;;5035824;28;20487;-67
2023/09/04 04:13:46;;;;;;;29.10;14.83;;;14.60;1.00;;;;;;5034826;28;20418;-69
2023/09/04 04:16:11;;;;;;;27.20;13.93;;;14.60;1.00;;;;;;5035175;28;20942;-72
2023/09/04 04:18:37;;;;;;;33.17;13.00;;;14.50;1.00;;;;;;5036007;28;20490;-72
2023/09/04 04:21:04;;;;;;;20.93;13.33;;;14.50;1.00;;;;;;5038540;28;20572;-71
2023/09/04 04:23:30;;;;;;;20.87;12.90;;;14.50;1.00;;;;;;5036128;28;20171;-66
2023/09/04 04:25:56;;;;;;;26.00;12.90;;;14.50;1.00;;;;;;5035061;28;20415;-66
2023/09/04 04:28:22;;;;;;;21.10;13.27;;;14.50;1.00;;;;;;5035201;28;21005;-66
2023/09/04 04:30:48;;;;;;;23.90;12.53;;;14.50;1.00;;;;;;5035877;28;20172;-68
2023/09/04 04:33:14;;;;;;;21.03;12.33;;;14.40;1.00;;;;;;5035847;28;20418;-65
2023/09/04 04:35:40;;;;;;;21.60;13.63;;;14.40;1.00;;;;;;5035906;28;20513;-68
2023/09/04 04:38:07;;;;;;;19.03;11.93;;;14.40;1.00;;;;;;5038471;28;20294;-67
2023/09/04 04:40:33;;;;;;;21.20;11.47;;;14.40;1.00;;;;;;5035670;28;20407;-72
2023/09/04 04:42:59;;;;;;;19.67;13.20;;;14.40;1.00;;;;;;5035757;28;20405;-66
2023/09/04 04:45:24;;;;;;;17.37;11.93;;;14.50;1.00;;;;;;5038455;28;20434;-70
2023/09/04 04:47:50;;;;;;;18.00;12.40;;;14.50;1.00;;;;;;5034967;28;21208;-72
2023/09/04 04:50:16;;;;;;;18.30;10.60;;;14.50;1.00;;;;;;5042700;28;20209;-67
2023/09/04 04:52:42;;;;;;;16.93;11.57;;;14.50;1.00;;;;;;5054193;28;20248;-69
2023/09/04 04:55:09;;;;;;;19.30;12.47;;;14.50;1.00;;;;;;5054509;28;20402;-72
2023/09/04 04:57:35;;;;;;;15.90;10.90;;;14.50;1.00;;;;;;5053972;28;20195;-67
2023/09/04 05:00:06;;;;;;;19.73;12.40;;;14.50;1.00;;;;;;5053381;28;20495;-67
2023/09/04 05:02:33;;;;;;;18.63;11.40;;;14.50;1.00;;;;;;5037046;28;20457;-72
2023/09/04 05:04:59;;;;;;;18.07;11.17;;;14.60;1.00;;;;;;5038107;28;20452;-65
2023/09/04 05:07:24;;;;;;;19.03;11.60;;;14.60;1.00;;;;;;5053966;28;20445;-66
2023/09/04 05:09:53;;;;;;;17.40;11.80;;;14.60;1.00;;;;;;5054906;28;20182;-66
2023/09/04 05:12:19;;;;;;;23.97;12.53;;;14.60;1.00;;;;;;5054942;28;20171;-72
2023/09/04 05:14:45;;;;;;;21.43;12.17;;;14.60;1.00;;;;;;5054061;28;20436;-67
2023/09/04 05:17:11;;;;;;;17.70;12.47;;;14.60;1.00;;;;;;5052720;28;20606;-71
2023/09/04 05:19:36;;;;;;;19.43;12.07;;;14.60;1.00;;;;;;5054745;28;20238;-67
2023/09/04 05:22:02;;;;;;;20.40;13.27;;;14.60;1.00;;;;;;5053418;28;20236;-66
2023/09/04 05:24:28;;;;;;;19.03;12.07;;;14.60;1.00;;;;;;5054072;28;20224;-72
2023/09/04 05:26:54;;;;;;;16.00;11.23;;;14.60;1.00;;;;;;5052184;28;20183;-72
2023/09/04 05:29:20;;;;;;;20.83;12.10;;;14.70;1.00;;;;;;5053443;28;20426;-68
2023/09/04 05:31:49;;;;;;;19.90;13.60;;;14.70;1.00;;;;;;5053667;28;20179;-72
2023/09/04 05:34:14;;;;;;;17.73;11.60;;;14.70;1.00;;;;;;5054621;28;20683;-67
2023/09/04 05:36:40;;;;;;;18.00;13.07;;;14.80;1.00;;;;;;5039100;28;20557;-68
2023/09/04 05:39:06;;;;;;;23.97;14.10;;;14.80;1.00;;;;;;5034442;28;20664;-66
2023/09/04 05:41:31;;;;;;;19.10;12.63;;;14.80;1.00;;;;;;5034207;28;20529;-71
2023/09/04 05:43:57;;;;;;;18.73;14.30;;;14.80;1.00;;;;;;5034354;28;20406;-67
2023/09/04 05:46:23;;;;;;;22.53;12.70;;;14.70;1.00;;;;;;5037009;28;20229;-71
2023/09/04 05:48:48;;;;;;;19.47;13.17;;;14.70;1.00;;;;;;5054329;28;20197;-66
2023/09/04 05:51:14;;;;;;;19.83;14.00;;;14.80;1.00;;;;;;5045247;28;20195;-72
2023/09/04 05:53:40;;;;;;;18.33;13.27;;;14.70;1.00;;;;;;5034397;28;20179;-66
2023/09/04 05:56:09;;;;;;;20.17;13.50;;;14.80;1.00;;;;;;5033452;28;20205;-67
2023/09/04 05:58:41;;;;;;;21.93;12.60;;;14.80;1.00;;;;;;5034163;28;20615;-66
2023/09/04 06:01:07;;;;;;;20.33;13.93;;;14.90;1.00;;;;;;5043246;28;20500;-72
2023/09/04 06:03:33;;;;;;;27.13;14.50;;;14.90;1.00;;;;;;5052963;28;20414;-67
2023/09/04 06:05:58;;;;;;;21.13;13.70;;;15.00;1.00;;;;;;5047536;28;20267;-67
2023/09/04 06:08:24;;;;;;;24.57;15.40;;;15.00;1.00;;;;;;5033966;28;20550;-66
2023/09/04 06:10:50;;;;;;;28.60;15.93;;;15.00;1.00;;;;;;5032960;28;20175;-66
2023/09/04 06:13:16;;;;;;;21.33;14.77;;;15.00;1.00;;;;;;5032333;28;20183;-71
2023/09/04 06:15:42;;;;;;;23.43;15.67;;;15.00;1.00;;;;;;5032556;28;20234;-66
2023/09/04 06:18:08;;;;;;;21.30;15.23;;;15.00;1.00;;;;;;5033802;28;20546;-66
2023/09/04 06:20:34;;;;;;;25.03;17.00;;;15.00;1.00;;;;;;5033221;28;20569;-67
2023/09/04 06:23:01;;;;;;;26.50;16.37;;;15.00;1.00;;;;;;5035395;28;20697;-66
2023/09/04 06:25:27;;;;;;;21.33;14.67;;;15.10;1.00;;;;;;5032904;28;20632;-71
2023/09/04 06:27:52;;;;;;;22.93;16.40;;;15.10;1.00;;;;;;5034040;28;20441;-72
2023/09/04 06:30:18;;;;;;;25.30;17.23;;;15.20;1.00;;;;;;5053599;28;20173;-71
2023/09/04 06:32:44;;;;;;;23.87;16.47;;;15.20;1.00;;;;;;5053666;28;20173;-71
2023/09/04 06:35:10;;;;;;;28.70;18.33;;;15.30;1.00;;;;;;5052456;28;20178;-67
2023/09/04 06:37:35;;;;;;;30.33;16.33;;;15.30;1.00;;;;;;5039181;28;20191;-66
2023/09/04 06:40:02;;;;;;;25.10;16.87;;;15.40;18.80;;;;;;5032933;28;20341;-66
2023/09/04 06:42:27;;;;;;;25.47;17.20;;;15.50;37.90;;;;;;5033450;28;20160;-67
2023/09/04 06:44:53;;;;;;;25.20;17.30;;;15.60;62.60;;;;;;5032266;28;20418;-66
2023/09/04 06:47:19;;;;;;;29.73;20.47;;;15.70;76.30;;;;;;5047637;28;20186;-66
2023/09/04 06:49:44;;;;;;;30.67;18.20;;;15.70;84.90;;;;;;5053115;28;20206;-66
2023/09/04 06:52:10;;;;;;;30.93;19.10;;;15.80;85.00;;;;;;5044277;28;20180;-71
2023/09/04 06:54:36;;;;;;;23.30;17.97;;;15.80;85.10;;;;;;5032608;28;20175;-66
2023/09/04 06:57:02;;;;;;;24.70;18.13;;;15.90;85.10;;;;;;5032137;28;20612;-67
2023/09/04 06:59:27;;;;;;;31.83;18.67;;;15.90;85.10;;;;;;5031308;28;20215;-72
2023/09/04 07:01:53;;;;;;;26.20;18.33;;;16.00;85.20;;;;;;5033171;28;20588;-71
2023/09/04 07:04:19;;;;;;;29.47;20.13;;;16.10;90.50;;;;;;5032089;28;20172;-71
2023/09/04 07:06:44;;;;;;;27.40;19.90;;;16.10;93.10;;;;;;5033131;28;20182;-72
2023/09/04 07:09:10;;;;;;;31.60;17.80;;;16.20;94.10;;;;;;5034089;28;20206;-66
2023/09/04 07:11:36;;;;;;;28.10;19.90;;;16.30;96.20;;;;;;5032365;28;20167;-67
2023/09/04 07:14:02;;;;;;;29.43;18.67;;;16.40;97.10;;;;;;5033070;28;20203;-69
2023/09/04 07:16:28;;;;;;;26.77;18.97;;;16.40;97.60;;;;;;5036304;28;20934;-71
2023/09/04 07:18:54;;;;;;;26.50;19.50;;;16.60;97.20;;;;;;5033687;28;20218;-69
2023/09/04 07:21:20;;;;;;;24.37;18.23;;;16.60;97.10;;;;;;5032984;28;20171;-70
2023/09/04 07:23:46;;;;;;;21.73;16.60;;;16.70;99.10;;;;;;5048308;28;21107;-71
2023/09/04 07:26:12;;;;;;;26.30;17.60;;;16.80;99.90;;;;;;5051938;28;20398;-67
2023/09/04 07:28:37;;;;;;;22.93;18.70;;;16.90;99.00;;;;;;5052721;28;20199;-71
2023/09/04 07:31:18;;;;;;;23.10;17.60;;;16.90;98.90;;;;;;5052131;28;20642;-72
2023/09/04 07:33:43;;;;;;;24.03;16.70;;;17.00;98.30;;;;;;5042280;28;20305;-67
2023/09/04 07:36:09;;;;;;;21.23;16.43;;;17.20;97.60;;;;;;5031964;28;20489;-71
2023/09/04 07:38:35;;;;;;;19.87;16.50;;;17.20;91.40;;;;;;5045324;28;20468;-67
2023/09/04 07:41:03;;;;;;;19.77;15.87;;;17.30;91.20;;;;;;5052642;28;20402;-70
2023/09/04 07:43:30;;;;;;;17.03;13.40;;;17.40;86.30;;;;;;5052699;28;20163;-69
2023/09/04 07:45:56;;;;;;;20.13;16.20;;;17.50;86.40;;;;;;5051616;28;20421;-71
2023/09/04 07:48:22;;;;;;;17.77;13.00;;;17.60;66.50;;;;;;5050765;28;20436;-72
2023/09/04 07:50:54;;;;;;;18.60;13.67;;;17.60;49.60;;;;;;5037844;28;20199;-69
2023/09/04 07:53:20;;;;;;;17.83;13.27;;;17.70;29.00;;;;;;5032447;28;20430;-70
2023/09/04 07:55:47;;;;;;;17.27;14.53;;;17.80;14.30;;;;;;5030368;28;20468;-74
2023/09/04 07:58:13;;;;;;;13.83;12.30;;;17.90;1.00;;;;;;5031171;28;20461;-69
2023/09/04 08:00:49;;;;;;;14.70;12.97;;;17.90;1.00;;;;;;5032122;28;20464;-68
2023/09/04 08:03:15;;;;;;;16.80;12.60;;;18.00;1.00;;;;;;5052306;28;20517;-69
2023/09/04 08:05:41;;;;;;;15.60;12.20;;;18.10;1.00;;;;;;5042151;28;20429;-72
2023/09/04 08:08:10;;;;;;;12.47;11.13;;;18.10;1.00;;;;;;5039846;28;20460;-73
2023/09/04 08:10:44;;;;;;;13.27;10.70;;;18.30;1.00;;;;;;5035213;28;20266;-75
2023/09/04 08:13:14;;;;;;;14.03;11.40;;;18.30;1.00;;;;;;5032535;28;20425;-74
2023/09/04 08:15:40;;;;;;;12.20;10.93;;;18.40;1.00;;;;;;5031065;28;20398;-72
2023/09/04 08:18:06;;;;;;;16.43;12.47;;;18.40;1.00;;;;;;5031086;28;20418;-74
2023/09/04 08:20:33;;;;;;;11.33;8.67;;;18.50;1.00;;;;;;5032442;28;20445;-70
2023/09/04 08:22:58;;;;;;;10.67;9.40;;;18.50;1.00;;;;;;5032504;28;20430;-73
2023/09/04 08:25:24;;;;;;;12.70;8.80;;;18.50;1.00;;;;;;5031271;28;20745;-69
2023/09/04 08:27:50;;;;;;;9.53;7.77;;;18.60;1.00;;;;;;5031807;28;20526;-75
2023/09/04 08:30:16;;;;;;;11.93;8.83;;;18.80;1.00;;;;;;5032138;28;20176;-68
2023/09/04 08:32:41;;;;;;;10.13;8.10;;;18.80;99.90;;;;;;5031242;28;20179;-71
2023/09/04 08:35:07;;;;;;;8.10;7.27;;;18.90;99.90;;;;;;5032054;28;20187;-69
2023/09/04 08:37:33;;;;;;;10.43;8.50;;;19.00;99.90;;;;;;5035223;28;20195;-74
2023/09/04 08:39:59;;;;;;;14.17;9.87;;;19.20;99.90;;;;;;5035692;28;20492;-68
2023/09/04 08:42:27;;;;;;;11.70;6.80;;;19.30;99.90;;;;;;5034487;28;20569;-69
2023/09/04 08:44:54;;;;;;;10.63;7.20;;;19.40;99.90;;;;;;5034813;28;20174;-68
2023/09/04 08:47:21;;;;;;;6.57;5.97;;;19.50;99.90;;;;;;5038980;28;20531;-74
2023/09/04 08:49:47;;;;;;;7.30;5.90;;;19.80;99.90;;;;;;5055618;28;20859;-74
2023/09/04 08:52:13;;;;;;;5.83;4.83;;;19.90;99.90;;;;;;5044381;28;20543;-74
2023/09/04 08:54:40;;;;;;;7.40;6.40;;;20.10;99.90;;;;;;5035428;28;20473;-72
2023/09/04 08:57:07;;;;;;;5.67;5.07;;;20.40;99.90;;;;;;5033300;28;20814;-68
2023/09/04 08:59:33;;;;;;;4.80;4.40;;;20.60;99.90;;;;;;5035091;28;20454;-74
2023/09/04 09:02:04;;;;;;;4.07;3.77;;;20.80;99.90;;;;;;5033866;28;20907;-69
2023/09/04 09:04:31;;;;;;;5.17;4.77;;;20.90;99.90;;;;;;5035278;28;20213;-68
2023/09/04 09:06:57;;;;;;;5.30;4.80;;;21.10;99.90;;;;;;5050634;28;20837;-73
2023/09/04 09:09:24;;;;;;;3.80;3.50;;;21.20;99.90;;;;;;5053802;28;20922;-74
2023/09/04 09:11:53;;;;;;;4.73;3.97;;;21.30;96.20;;;;;;5055098;28;20488;-68
2023/09/04 09:14:20;;;;;;;3.13;2.80;;;21.50;96.20;;;;;;5055027;28;20763;-74
2023/09/04 09:16:46;;;;;;;5.37;3.87;;;21.80;91.30;;;;;;5053962;28;20413;-69
2023/09/04 09:19:13;;;;;;;3.40;3.20;;;21.90;51.10;;;;;;5052873;28;20745;-72
2023/09/04 09:21:39;;;;;;;2.97;2.67;;;22.10;33.90;;;;;;5054945;28;20682;-74
2023/09/04 09:24:25;;;;;;;3.90;2.53;;;22.40;31.20;;;;;;5054841;28;20406;-73
2023/09/04 09:26:51;;;;;;;2.63;2.43;;;22.70;1.00;;;;;;5053657;28;20563;-73
2023/09/04 09:29:17;;;;;;;3.20;2.73;;;23.10;1.00;;;;;;5054537;28;20513;-67
2023/09/04 09:31:45;;;;;;;2.77;2.57;;;23.40;1.00;;;;;;5054787;28;20250;-70
2023/09/04 09:34:12;;;;;;;2.70;2.50;;;23.80;1.00;;;;;;5053072;28;20429;-69
2023/09/04 09:36:39;;;;;;;2.90;2.70;;;24.00;1.00;;;;;;5053601;28;20398;-68
2023/09/04 09:39:05;;;;;;;2.53;2.07;;;24.00;1.00;;;;;;5053829;28;20449;-73
2023/09/04 09:41:32;;;;;;;6.07;2.23;;;24.10;1.00;;;;;;5053310;28;20466;-73
2023/09/04 09:44:03;;;;;;;3.50;2.77;;;24.30;1.00;;;;;;5035668;28;20433;-73
2023/09/04 09:46:29;;;;;;;4.67;2.60;;;24.40;1.00;;;;;;5032921;28;20407;-67
2023/09/04 09:48:55;;;;;;;3.37;2.20;;;24.50;1.00;;;;;;5044787;28;20449;-72
2023/09/04 09:51:21;;;;;;;2.70;2.33;;;24.80;1.00;;;;;;5054299;28;20432;-72
2023/09/04 09:53:51;;;;;;;2.33;2.13;;;25.00;1.00;;;;;;5053945;28;20618;-72
2023/09/04 09:56:18;;;;;;;7.23;2.10;;;25.20;1.00;;;;;;5052731;28;20175;-67
2023/09/04 09:58:46;;;;;;;3.43;2.57;;;25.50;1.00;;;;;;5053887;28;20465;-74
2023/09/04 10:01:13;;;;;;;2.50;2.30;;;25.80;1.00;;;;;;5054225;28;20484;-72
2023/09/04 10:03:40;;;;;;;4.13;2.30;;;26.10;1.00;;;;;;5052601;28;20453;-72
2023/09/04 10:06:08;;;;;;;2.73;2.53;;;26.30;1.00;;;;;;5053089;28;20398;-67
2023/09/04 10:08:44;;;;;;;3.37;3.07;;;26.50;1.00;;;;;;5053954;28;20844;-71
2023/09/04 10:11:13;;;;;;;3.73;3.43;;;26.30;1.00;;;;;;5054034;28;20408;-68
2023/09/04 10:13:52;;;;;;;4.40;3.40;;;26.20;1.00;;;;;;5054002;28;20402;-72
2023/09/04 10:16:28;;;;;;;2.33;2.23;;;26.10;1.00;;;;;;5050883;28;20438;-67
2023/09/04 10:18:56;;;;;;;2.00;1.80;;;26.30;1.00;;;;;;5053544;28;21026;-73
2023/09/04 10:21:25;;;;;;;3.03;2.80;;;26.70;1.00;;;;;;5053779;28;20872;-67
2023/09/04 10:23:56;;;;;;;2.07;1.97;;;26.70;1.00;;;;;;5053835;28;20409;-68
2023/09/04 10:26:35;;;;;;;2.70;2.30;;;26.70;1.00;;;;;;5038489;28;20537;-72
2023/09/04 10:29:25;;;;;;;3.60;2.80;;;26.70;1.00;;;;;;5033598;28;20914;-72
2023/09/04 10:31:52;;;;;;;4.07;3.27;;;26.80;1.00;;;;;;5037789;28;20456;-69
2023/09/04 10:34:19;;;;;;;2.40;2.20;;;26.70;1.00;;;;;;5053002;28;20405;-71
2023/09/04 10:36:46;;;;;;;2.70;2.43;;;26.60;1.00;;;;;;5052542;28;20413;-68
2023/09/04 10:39:13;;;;;;;3.50;1.97;;;26.80;1.00;;;;;;5053247;28;20870;-73
2023/09/04 10:41:39;;;;;;;2.27;1.97;;;27.00;1.00;;;;;;5053252;28;20870;-68
2023/09/04 10:44:05;;;;;;;1.80;1.70;;;27.10;1.00;;;;;;5052354;28;20771;-71
2023/09/04 10:46:31;;;;;;;2.30;2.10;;;27.30;1.00;;;;;;5051060;28;20429;-73
2023/09/04 10:48:56;;;;;;;4.73;2.30;;;27.40;1.00;;;;;;5053218;28;20199;-72
2023/09/04 10:51:36;;;;;;;2.20;2.10;;;27.40;1.00;;;;;;5052625;28;20197;-69
2023/09/04 10:54:03;;;;;;;3.70;2.33;;;27.60;99.90;;;;;;5048527;28;20199;-69
2023/09/04 10:56:29;;;;;;;2.17;2.03;;;27.80;99.90;;;;;;5032576;28;20402;-71
2023/09/04 10:59:05;;;;;;;3.03;2.63;;;27.90;99.90;;;;;;5032243;28;20475;-68
2023/09/04 11:01:38;;;;;;;2.10;1.90;;;28.10;99.90;;;;;;5040745;28;20182;-67
2023/09/04 11:04:07;;;;;;;2.27;2.00;;;28.40;99.90;;;;;;5033954;28;20431;-71
2023/09/04 11:06:36;;;;;;;2.50;2.20;;;28.80;99.90;;;;;;5030925;28;20788;-68
2023/09/04 11:09:03;;;;;;;2.70;2.50;;;29.30;1.00;;;;;;5032645;28;20457;-71
2023/09/04 11:11:30;;;;;;;2.03;1.80;;;29.60;99.90;;;;;;5032648;28;20412;-68
2023/09/04 11:13:57;;;;;;;2.47;2.27;;;29.60;1.00;;;;;;5033019;28;20442;-71
2023/09/04 11:16:24;;;;;;;4.40;3.27;;;29.60;99.90;;;;;;5045777;28;20518;-71
2023/09/04 11:19:01;;;;;;;4.00;2.80;;;29.50;99.90;;;;;;5052682;28;21210;-68
2023/09/04 11:21:35;;;;;;;3.37;2.97;;;29.70;99.90;;;;;;5051485;28;20801;-67
2023/09/04 11:24:02;;;;;;;2.97;2.77;;;29.80;99.90;;;;;;5052822;28;20405;-72
2023/09/04 11:26:29;;;;;;;3.80;3.37;;;30.00;99.90;;;;;;5051116;28;20401;-71
2023/09/04 11:28:59;;;;;;;2.60;2.40;;;29.40;99.90;;;;;;5052706;28;20425;-72
2023/09/04 11:31:26;;;;;;;4.43;3.00;;;28.60;99.90;;;;;;5050970;28;20429;-68
2023/09/04 11:33:53;;;;;;;3.10;2.80;;;28.00;99.90;;;;;;5051426;28;20425;-68
2023/09/04 11:36:18;;;;;;;2.87;2.67;;;27.80;99.90;;;;;;5044990;28;20520;-67
2023/09/04 11:38:44;;;;;;;2.80;2.60;;;27.50;99.90;;;;;;5049333;28;21025;-69
2023/09/04 11:41:20;;;;;;;3.30;2.73;;;27.20;99.90;;;;;;5041432;28;20217;-72
2023/09/04 11:43:46;;;;;;;2.83;2.60;;;27.50;99.90;;;;;;5052565;28;20171;-73
2023/09/04 11:46:12;;;;;;;4.90;3.13;;;28.20;99.90;;;;;;5034290;28;20846;-71
2023/09/04 11:48:38;;;;;;;2.53;2.20;;;28.50;99.90;;;;;;5035328;28;20485;-69
2023/09/04 11:51:04;;;;;;;3.60;3.03;;;28.80;99.90;;;;;;5042712;28;20207;-69
2023/09/04 11:53:31;;;;;;;2.80;2.60;;;29.10;99.90;;;;;;5034868;28;20456;-68
2023/09/04 11:55:57;;;;;;;3.00;2.80;;;29.20;99.90;;;;;;5035692;28;20787;-68
2023/09/04 11:58:23;;;;;;;2.30;2.10;;;29.20;99.90;;;;;;5046116;28;20974;-72
2023/09/04 12:00:49;;;;;;;3.07;2.77;;;28.80;99.90;;;;;;5043259;28;20470;-68
2023/09/04 12:03:15;;;;;;;3.50;3.20;;;28.50;99.90;;;;;;5051650;28;20171;-71
2023/09/04 12:05:41;;;;;;;2.63;2.43;;;28.30;99.90;;;;;;5050152;28;20923;-69
2023/09/04 12:08:07;;;;;;;4.07;2.80;;;27.70;99.90;;;;;;5052349;28;20187;-71
2023/09/04 12:10:35;;;;;;;2.47;2.30;;;27.30;99.90;;;;;;5054453;28;20397;-72
2023/09/04 12:13:02;;;;;;;2.60;2.40;;;27.10;99.90;;;;;;5050718;28;20429;-72
2023/09/04 12:15:34;;;;;;;4.10;2.87;;;27.00;99.90;;;;;;5045924;28;20483;-74
2023/09/04 12:18:02;;;;;;;2.57;2.37;;;27.00;99.90;;;;;;5038377;28;20523;-69
2023/09/04 12:20:46;;;;;;;5.10;3.23;;;27.00;99.90;;;;;;5041559;28;20434;-70
2023/09/04 12:23:12;;;;;;;2.40;2.20;;;26.80;99.90;;;;;;5052512;28;20424;-68
2023/09/04 12:25:44;;;;;;;3.07;2.77;;;26.90;99.90;;;;;;5052826;28;20435;-69
2023/09/04 12:28:13;;;;;;;3.40;3.10;;;27.00;99.90;;;;;;5052800;28;20198;-70
2023/09/04 12:30:44;;;;;;;3.57;3.27;;;27.10;99.90;;;;;;5035983;28;20928;-68
2023/09/04 12:33:15;;;;;;;3.43;3.13;;;27.10;99.90;;;;;;5036094;28;20407;-69
2023/09/04 12:35:41;;;;;;;3.97;3.57;;;27.00;99.90;;;;;;5037400;28;20437;-69
2023/09/04 12:38:07;;;;;;;3.20;2.83;;;27.10;99.90;;;;;;5034168;28;20442;-67
2023/09/04 12:40:33;;;;;;;3.93;2.87;;;27.10;99.90;;;;;;5035781;28;20167;-71